Time;durP1;ratioP1;P1;durP2;ratioP2;P2;SDS_P1;SDS_P2;PMS_P1;PMS_P2;Temp;Humidity;BMP_temperature;BMP_pressure;BME280_temperature;BME280_humidity;BME280_pressure;Samples;Min_cycle;Max_cycle;Signal;HPM_P1;HPM_P2
2023/05/19 00:01:04;;;;;;;9.83;6.37;;;;;;;15.90;73.69;96879.03;4988932;28;20201;-74
2023/05/19 00:04:28;;;;;;;6.23;5.63;;;;;;;15.90;73.36;96865.13;4988588;28;20190;-70
2023/05/19 00:07:48;;;;;;;7.53;6.70;;;;;;;15.90;73.35;96879.03;4990527;28;20321;-70
2023/05/19 00:11:09;;;;;;;8.73;6.33;;;;;;;15.90;72.44;96879.03;4990659;28;20201;-68
2023/05/19 00:14:30;;;;;;;6.80;6.10;;;;;;;15.97;72.22;96880.25;4989378;28;20235;-67
2023/05/19 00:17:51;;;;;;;7.53;5.63;;;;;;;15.92;72.45;96873.69;4989080;28;20683;-71
2023/05/19 00:21:11;;;;;;;8.33;5.90;;;;;;;15.96;71.72;96880.38;5003758;28;20230;-69
2023/05/19 00:24:32;;;;;;;10.73;6.67;;;;;;;16.08;71.03;96887.34;5004682;28;20290;-75
2023/05/19 00:27:53;;;;;;;8.50;6.37;;;;;;;16.10;70.75;96888.94;4990271;28;20195;-69
2023/05/19 00:31:13;;;;;;;8.53;6.97;;;;;;;15.99;70.82;96864.50;5003368;28;20198;-74
2023/05/19 00:34:34;;;;;;;6.73;5.87;;;;;;;16.03;71.32;96894.69;4988695;28;20233;-71
2023/05/19 00:37:56;;;;;;;8.50;7.00;;;;;;;16.01;70.73;96886.13;4989931;28;20202;-68
2023/05/19 00:41:17;;;;;;;9.37;6.70;;;;;;;16.10;70.45;96883.69;5004342;28;20623;-68
2023/05/19 00:44:37;;;;;;;7.70;6.33;;;;;;;16.02;71.59;96891.25;4988702;28;20262;-68
2023/05/19 00:47:58;;;;;;;7.87;6.67;;;;;;;15.93;71.88;96881.41;5002912;28;20227;-67
2023/05/19 00:51:18;;;;;;;11.17;7.60;;;;;;;15.95;71.87;96883.94;4989344;28;20223;-69
2023/05/19 00:54:39;;;;;;;9.50;7.10;;;;;;;15.86;71.87;96901.09;4989836;28;20292;-73
2023/05/19 00:58:00;;;;;;;8.37;7.10;;;;;;;15.88;71.92;96893.13;4989599;28;20227;-74
2023/05/19 01:01:21;;;;;;;8.60;6.47;;;;;;;15.73;72.50;96879.34;4988028;28;20588;-67
2023/05/19 01:04:42;;;;;;;9.53;7.30;;;;;;;15.74;72.37;96881.03;4987681;28;20335;-70
2023/05/19 01:08:03;;;;;;;9.07;7.40;;;;;;;15.82;70.65;96876.13;4989072;28;20184;-67
2023/05/19 01:11:23;;;;;;;8.57;7.33;;;;;;;15.86;70.52;96880.19;4989532;28;20196;-66
2023/05/19 01:14:44;;;;;;;8.83;6.80;;;;;;;15.92;70.48;96874.53;4986334;28;20258;-66
2023/05/19 01:18:10;;;;;;;9.57;7.40;;;;;;;15.84;71.51;96869.00;5002415;28;20200;-69
2023/05/19 01:21:36;;;;;;;8.97;7.27;;;;;;;15.79;72.07;96870.25;5002534;28;20235;-67
2023/05/19 01:24:49;;;;;;;13.90;7.50;;;;;;;15.70;72.77;96876.13;4987784;28;20274;-65
2023/05/19 01:27:50;;;;;;;8.13;6.93;;;;;;;15.73;72.25;96874.13;5002615;28;20260;-69
2023/05/19 01:30:31;;;;;;;10.33;7.20;;;;;;;15.71;72.09;96870.78;4987215;28;20762;-67
2023/05/19 01:33:51;;;;;;;9.87;6.43;;;;;;;15.83;69.24;96885.59;5002816;28;20243;-66
2023/05/19 01:37:12;;;;;;;8.30;6.70;;;;;;;15.92;70.69;96890.22;4989009;28;20203;-66
2023/05/19 01:40:33;;;;;;;8.93;6.63;;;;;;;15.79;71.51;96871.09;5002211;28;20187;-68
2023/05/19 01:43:53;;;;;;;8.57;6.63;;;;;;;15.77;72.28;96872.13;5002049;28;20197;-67
2023/05/19 01:47:14;;;;;;;10.77;7.30;;;;;;;15.70;72.46;96871.75;5003341;28;20203;-68
2023/05/19 01:50:34;;;;;;;9.77;6.80;;;;;;;15.74;71.47;96870.59;4988871;28;20200;-72
2023/05/19 01:53:55;;;;;;;10.33;7.13;;;;;;;15.76;71.31;96867.88;5002659;28;20738;-66
2023/05/19 01:57:14;;;;;;;8.70;7.10;;;;;;;15.75;71.92;96866.19;4987388;28;20199;-69
2023/05/19 02:00:35;;;;;;;10.33;7.40;;;;;;;15.76;71.95;96853.03;4999987;28;20188;-67
2023/05/19 02:03:45;;;;;;;11.77;6.80;;;;;;;15.74;72.02;96856.69;4988176;28;20202;-69
2023/05/19 02:06:35;;;;;;;8.93;6.27;;;;;;;15.72;72.05;96855.97;5002223;28;20711;-66
2023/05/19 02:09:42;;;;;;;9.37;6.43;;;;;;;15.72;71.53;96872.47;4987039;28;20287;-66
2023/05/19 02:13:02;;;;;;;8.80;7.53;;;;;;;15.77;71.43;96865.16;4987878;28;20326;-66
2023/05/19 02:16:24;;;;;;;8.13;6.73;;;;;;;15.75;71.32;96887.06;5007227;28;20202;-67
2023/05/19 02:19:45;;;;;;;8.53;6.50;;;;;;;15.82;71.30;96891.78;5006027;28;20270;-68
2023/05/19 02:23:06;;;;;;;8.90;6.83;;;;;;;15.75;70.60;96874.88;5005664;28;20592;-66
2023/05/19 02:26:26;;;;;;;9.73;6.53;;;;;;;15.84;71.00;96883.84;4992130;28;20262;-72
2023/05/19 02:29:47;;;;;;;10.67;6.90;;;;;;;15.83;70.27;96872.56;5006842;28;20191;-69
2023/05/19 02:33:11;;;;;;;10.87;7.50;;;;;;;15.82;70.54;96877.88;4991712;28;20196;-67
2023/05/19 02:36:33;;;;;;;11.57;7.30;;;;;;;15.84;69.34;96882.06;4990829;28;20702;-69
2023/05/19 02:39:54;;;;;;;9.97;7.43;;;;;;;16.01;68.51;96899.19;5007840;28;20741;-66
2023/05/19 02:43:15;;;;;;;10.93;7.40;;;;;;;15.93;69.31;96886.66;5011054;28;20191;-70
2023/05/19 02:46:35;;;;;;;9.30;7.07;;;;;;;15.90;69.59;96906.91;5011075;28;20187;-75
2023/05/19 02:49:56;;;;;;;11.50;7.73;;;;;;;15.90;68.45;96922.59;5008185;28;20568;-69
2023/05/19 02:53:17;;;;;;;14.03;7.37;;;;;;;16.30;65.26;96904.03;5009394;28;20210;-70
2023/05/19 02:56:38;;;;;;;12.10;8.07;;;;;;;16.36;66.24;96941.97;5010589;28;20187;-68
2023/05/19 02:59:59;;;;;;;13.20;8.43;;;;;;;16.23;67.32;96935.94;4992597;28;20187;-75
2023/05/19 03:03:19;;;;;;;9.50;7.67;;;;;;;16.23;67.72;96938.56;5008464;28;20191;-74
2023/05/19 03:06:41;;;;;;;10.00;7.30;;;;;;;16.13;68.27;96951.44;5007346;28;20195;-71
2023/05/19 03:10:05;;;;;;;9.50;7.23;;;;;;;16.05;68.20;96951.09;5007719;28;20187;-66
2023/05/19 03:13:26;;;;;;;10.60;7.90;;;;;;;16.06;68.28;96941.47;5008541;28;20226;-70
2023/05/19 03:16:47;;;;;;;17.57;8.07;;;;;;;16.13;67.43;96956.66;5008999;28;20198;-68
2023/05/19 03:20:09;;;;;;;12.60;8.03;;;;;;;16.21;67.04;96959.56;5007294;28;20664;-67
2023/05/19 03:23:30;;;;;;;10.33;7.47;;;;;;;16.15;67.85;96954.78;5006904;28;20192;-69
2023/05/19 03:27:06;;;;;;;11.40;7.37;;;;;;;16.11;67.85;96952.47;5005166;28;20203;-65
2023/05/19 03:30:27;;;;;;;11.63;8.50;;;;;;;16.07;68.96;96967.50;4999228;28;20196;-68
2023/05/19 03:33:52;;;;;;;11.47;8.53;;;;;;;16.21;68.15;96980.47;4989377;28;20232;-66
2023/05/19 03:37:13;;;;;;;13.07;7.47;;;;;;;16.48;68.37;96984.72;4987225;28;20194;-71
2023/05/19 03:40:33;;;;;;;7.97;7.07;;;;;;;16.79;67.11;96987.72;5005831;28;20204;-69
2023/05/19 03:43:54;;;;;;;11.40;7.80;;;;;;;17.11;66.30;96982.78;5003784;28;20191;-67
2023/05/19 03:47:15;;;;;;;15.93;12.27;;;;;;;17.21;65.86;96991.63;5004059;28;20238;-74
2023/05/19 03:50:43;;;;;;;11.17;7.60;;;;;;;17.62;64.31;96999.91;5007948;28;20270;-73
2023/05/19 03:54:05;;;;;;;9.00;7.37;;;;;;;17.62;64.20;96999.09;5006530;28;20302;-67
2023/05/19 03:57:26;;;;;;;9.10;7.40;;;;;;;17.91;63.17;97010.03;5007124;28;20334;-66
2023/05/19 04:00:50;;;;;;;15.07;9.17;;;;;;;18.20;62.84;97001.59;4992265;28;20272;-67
2023/05/19 04:04:11;;;;;;;14.47;9.23;;;;;;;18.25;62.25;97009.94;4991102;28;20195;-65
2023/05/19 04:07:31;;;;;;;16.80;9.00;;;;;;;18.66;60.96;97005.00;5006069;28;20191;-65
2023/05/19 04:10:52;;;;;;;11.30;8.50;;;;;;;18.40;62.06;97026.28;4999404;28;20196;-66
2023/05/19 04:14:13;;;;;;;10.57;8.20;;;;;;;18.51;61.78;97021.06;5003879;28;20224;-66
2023/05/19 04:17:34;;;;;;;13.67;8.50;;;;;;;18.53;61.63;97027.03;4994547;28;20207;-74
2023/05/19 04:20:55;;;;;;;10.50;8.37;;;;;;;18.92;60.72;97026.53;5006812;28;20314;-66
2023/05/19 04:23:37;;;;;;;16.13;9.30;;;;;;;18.97;59.97;97013.91;5006227;28;20217;-69
2023/05/19 04:26:05;;;;;;;11.13;7.93;;;;;;;18.98;60.44;97015.53;5007669;28;20190;-67
2023/05/19 04:28:35;;;;;;;11.63;7.83;;;;;;;19.14;59.53;97020.41;5006260;28;20766;-67
2023/05/19 04:31:02;;;;;;;11.30;8.03;;;;;;;19.21;59.05;97027.69;5009014;28;20611;-69
2023/05/19 04:33:29;;;;;;;9.90;7.93;;;;;;;19.20;59.36;97041.78;4990780;28;20337;-71
2023/05/19 04:35:57;;;;;;;10.97;7.83;;;;;;;19.17;59.93;97025.41;5006363;28;20189;-69
2023/05/19 04:38:24;;;;;;;13.73;8.33;;;;;;;19.16;59.70;97026.38;5007611;28;20202;-66
2023/05/19 04:40:51;;;;;;;12.40;8.77;;;;;;;19.13;59.56;97035.34;5005431;28;20205;-70
2023/05/19 04:43:21;;;;;;;11.77;8.13;;;;;;;19.24;58.99;97022.19;4989824;28;21249;-75
2023/05/19 04:45:50;;;;;;;9.23;7.70;;;;;;;19.02;58.74;97031.91;4995927;28;20574;-66
2023/05/19 04:48:20;;;;;;;14.30;8.23;;;;;;;18.73;60.34;97057.81;5020378;28;20571;-71
2023/05/19 04:50:50;;;;;;;12.87;8.50;;;;;;;18.56;60.82;97048.63;5007977;28;20198;-71
2023/05/19 04:53:18;;;;;;;10.07;8.10;;;;;;;18.42;61.45;97055.84;5006084;28;20317;-75
2023/05/19 04:55:45;;;;;;;9.90;8.17;;;;;;;18.00;62.87;97057.31;5008532;28;20199;-73
2023/05/19 04:58:13;;;;;;;12.40;8.23;;;;;;;17.85;63.33;97063.69;5005715;28;20587;-71
2023/05/19 05:00:42;;;;;;;10.13;8.07;;;;;;;18.03;62.82;97069.38;4989233;28;20200;-78
2023/05/19 05:03:09;;;;;;;10.70;8.13;;;;;;;18.22;62.45;97051.28;5017568;28;20199;-74
2023/05/19 05:05:36;;;;;;;9.47;7.57;;;;;;;18.09;61.90;97068.91;5008223;28;20837;-68
2023/05/19 05:08:04;;;;;;;13.30;9.00;;;;;;;18.14;61.95;97062.34;5007738;28;20226;-67
2023/05/19 05:10:36;;;;;;;8.20;7.20;;;;;;;18.11;62.35;97072.25;5006622;28;20188;-67
2023/05/19 05:13:04;;;;;;;9.80;7.93;;;;;;;18.27;62.46;97072.75;5006866;28;20221;-67
2023/05/19 05:15:37;;;;;;;11.37;7.70;;;;;;;18.34;61.87;97071.34;5005259;28;20188;-67
2023/05/19 05:18:05;;;;;;;11.17;7.80;;;;;;;18.36;61.46;97070.25;5006599;28;20597;-66
2023/05/19 05:20:32;;;;;;;11.27;7.90;;;;;;;18.38;60.84;97072.78;5005371;28;20702;-66
2023/05/19 05:23:00;;;;;;;9.97;7.73;;;;;;;18.46;60.79;97071.28;5006572;28;20603;-69
2023/05/19 05:26:10;;;;;;;10.17;7.97;;;;;;;18.37;60.81;97086.81;5022321;28;20282;-66
2023/05/19 05:29:35;;;;;;;12.53;8.10;;;;;;;18.37;60.99;97086.81;5004810;28;20200;-73
2023/05/19 05:32:56;;;;;;;12.23;8.20;;;;;;;18.60;60.21;97080.69;5003230;28;20284;-71
2023/05/19 05:35:39;;;;;;;12.27;8.50;;;;;;;19.05;59.91;97092.88;5021298;28;20640;-71
2023/05/19 05:38:10;;;;;;;10.53;8.60;;;;;;;19.07;59.62;97083.06;4989136;28;20198;-72
2023/05/19 05:40:38;;;;;;;11.40;7.87;;;;;;;19.22;59.67;97096.78;5005389;28;20623;-73
2023/05/19 05:43:05;;;;;;;10.73;7.50;;;;;;;19.09;60.43;97106.56;4989665;28;20670;-67
2023/05/19 05:45:37;;;;;;;9.50;7.97;;;;;;;19.03;60.39;97107.06;4988218;28;20788;-68
2023/05/19 05:48:07;;;;;;;9.80;7.67;;;;;;;18.98;60.41;97103.97;5002723;28;20208;-65
2023/05/19 05:50:34;;;;;;;12.53;7.60;;;;;;;18.82;60.74;97112.19;5012824;28;20209;-70
2023/05/19 05:53:05;;;;;;;10.30;7.50;;;;;;;18.84;61.12;97093.69;5005772;28;20270;-69
2023/05/19 05:55:38;;;;;;;14.27;7.83;;;;;;;18.80;61.21;97110.63;5005021;28;20230;-68
2023/05/19 05:58:09;;;;;;;19.17;8.07;;;;;;;18.80;60.85;97124.59;5006560;28;20199;-72
2023/05/19 06:00:37;;;;;;;12.17;7.40;;;;;;;18.69;61.10;97138.53;4989738;28;20228;-67
2023/05/19 06:03:04;;;;;;;13.20;8.17;;;;;;;18.56;61.35;97135.19;5004395;28;20275;-68
2023/05/19 06:05:31;;;;;;;12.07;8.50;;;;;;;18.68;61.82;97133.41;4989407;28;20194;-68
2023/05/19 06:07:58;;;;;;;11.07;7.57;;;;;;;18.78;60.88;97144.88;5020679;28;20195;-69
2023/05/19 06:10:30;;;;;;;11.80;7.97;;;;;;;18.70;61.15;97139.38;5005543;28;20208;-70
2023/05/19 06:12:58;;;;;;;9.70;7.20;;;;;;;18.64;61.74;97147.72;4988376;28;20578;-67
2023/05/19 06:15:25;;;;;;;10.73;7.53;;;;;;;18.75;61.11;97154.78;5004277;28;20185;-73
2023/05/19 06:18:03;;;;;;;12.27;8.10;;;;;;;18.53;62.32;97151.16;4988802;28;20531;-68
2023/05/19 06:20:30;;;;;;;12.83;7.80;;;;;;;18.62;61.96;97160.97;5005169;28;20228;-68
2023/05/19 06:22:59;;;;;;;11.07;7.87;;;;;;;18.75;61.09;97152.16;4989405;28;20228;-67
2023/05/19 06:25:27;;;;;;;10.63;8.23;;;;;;;18.51;61.32;97158.31;5003582;28;20192;-68
2023/05/19 06:27:56;;;;;;;11.30;8.20;;;;;;;18.60;61.11;97159.41;5005135;28;20198;-66
2023/05/19 06:30:23;;;;;;;14.00;8.97;;;;;;;18.85;60.95;97159.19;4972487;28;20280;-65
2023/05/19 06:33:20;;;;;;;9.60;7.60;;;;;;;18.67;61.09;97169.28;5008596;28;20439;-68
2023/05/19 06:35:48;;;;;;;12.73;9.03;;;;;;;18.82;61.25;97155.97;5005531;28;20200;-67
2023/05/19 06:38:15;;;;;;;13.40;7.67;;;;;;;19.09;61.60;97165.19;4987574;28;20193;-71
2023/05/19 06:40:42;;;;;;;14.90;8.87;;;;;;;19.18;59.95;97161.84;5005184;28;20192;-74
2023/05/19 06:43:09;;;;;;;11.13;8.53;;;;;;;19.34;59.94;97164.97;5004282;28;20185;-67
2023/05/19 06:45:54;;;;;;;14.37;8.73;;;;;;;19.40;59.74;97169.75;4988095;28;20270;-68
2023/05/19 06:48:24;;;;;;;15.83;8.10;;;;;;;19.35;60.24;97168.44;4973308;28;20208;-71
2023/05/19 06:50:52;;;;;;;14.73;8.90;;;;;;;19.66;59.13;97172.91;5003676;28;20201;-70
2023/05/19 06:53:22;;;;;;;9.97;8.33;;;;;;;19.42;59.63;97173.06;5005048;28;20329;-67
2023/05/19 06:55:51;;;;;;;10.90;8.00;;;;;;;19.00;61.10;97186.88;5003812;28;20205;-67
2023/05/19 06:58:29;;;;;;;11.97;8.83;;;;;;;19.21;60.09;97163.38;5004852;28;20217;-67
2023/05/19 07:00:58;;;;;;;11.07;8.00;;;;;;;19.36;59.90;97188.47;5008586;28;20210;-73
2023/05/19 07:03:30;;;;;;;9.97;8.27;;;;;;;19.57;59.51;97185.94;5007093;28;20189;-71
2023/05/19 07:05:58;;;;;;;11.37;8.90;;;;;;;19.43;59.10;97182.59;5010154;28;20331;-73
2023/05/19 07:08:26;;;;;;;12.47;7.90;;;;;;;19.33;59.18;97179.03;4990610;28;20217;-67
2023/05/19 07:10:56;;;;;;;10.00;7.87;;;;;;;19.48;59.59;97188.34;4991946;28;20199;-65
2023/05/19 07:13:24;;;;;;;12.40;9.07;;;;;;;19.50;60.04;97188.22;5007072;28;20213;-68
2023/05/19 07:15:55;;;;;;;11.30;8.70;;;;;;;19.34;59.80;97199.13;4975749;28;20615;-70
2023/05/19 07:18:22;;;;;;;17.33;9.20;;;;;;;19.26;60.27;97192.75;4991633;28;20212;-66
2023/05/19 07:20:52;;;;;;;13.27;8.40;;;;;;;19.27;60.56;97190.00;4990693;28;20237;-71
2023/05/19 07:23:20;;;;;;;12.07;8.93;;;;;;;19.24;60.01;97182.38;5008259;28;20618;-69
2023/05/19 07:25:47;;;;;;;13.03;8.63;;;;;;;19.62;60.48;97187.25;5006388;28;20284;-67
2023/05/19 07:28:14;;;;;;;9.43;8.40;;;;;;;19.64;59.79;97174.81;5009395;28;20205;-70
2023/05/19 07:30:44;;;;;;;12.23;8.50;;;;;;;19.59;58.88;97178.78;5006148;28;20667;-72
2023/05/19 07:33:13;;;;;;;11.10;9.03;;;;;;;19.61;60.09;97185.59;4991653;28;20786;-67
2023/05/19 07:35:40;;;;;;;13.43;9.03;;;;;;;19.88;59.41;97193.91;5008649;28;20720;-69
2023/05/19 07:38:10;;;;;;;9.60;8.60;;;;;;;19.75;59.33;97192.38;5006979;28;20212;-70
2023/05/19 07:40:37;;;;;;;11.70;9.20;;;;;;;19.62;59.62;97189.06;5024217;28;20209;-71
2023/05/19 07:43:04;;;;;;;15.00;9.40;;;;;;;19.76;60.18;97168.63;5007327;28;20186;-67
2023/05/19 07:45:32;;;;;;;15.47;8.33;;;;;;;19.97;58.49;97164.22;5009252;28;20194;-72
2023/05/19 07:47:59;;;;;;;13.10;8.77;;;;;;;19.91;58.81;97159.47;5007420;28;20190;-67
2023/05/19 07:50:27;;;;;;;13.33;8.90;;;;;;;19.75;59.61;97189.72;5007791;28;20185;-76
2023/05/19 07:52:54;;;;;;;12.40;8.10;;;;;;;19.33;61.32;97159.81;5008015;28;20190;-67
2023/05/19 07:55:22;;;;;;;10.50;8.47;;;;;;;19.65;59.95;97173.03;5007903;28;20786;-69
2023/05/19 07:57:49;;;;;;;15.47;8.93;;;;;;;19.63;60.00;97175.78;5009195;28;20663;-68
2023/05/19 08:00:16;;;;;;;11.63;7.67;;;;;;;19.56;60.01;97200.06;5006219;28;20688;-66
2023/05/19 08:02:44;;;;;;;12.93;8.90;;;;;;;19.68;60.24;97178.06;5007479;28;20677;-67
2023/05/19 08:05:11;;;;;;;11.77;8.43;;;;;;;19.74;60.39;97185.44;5005652;28;20687;-69
2023/05/19 08:07:38;;;;;;;10.27;8.33;;;;;;;19.97;60.22;97177.38;5023660;28;20195;-65
2023/05/19 08:10:06;;;;;;;12.20;9.20;;;;;;;20.18;59.74;97174.78;5007081;28;20195;-66
2023/05/19 08:12:33;;;;;;;15.43;8.43;;;;;;;20.41;58.21;97183.44;5022501;28;20198;-66
2023/05/19 08:15:00;;;;;;;10.73;8.03;;;;;;;20.62;54.98;97186.94;5008306;28;20238;-70
2023/05/19 08:17:30;;;;;;;10.23;7.37;;;;;;;20.53;58.16;97193.78;5021591;28;20626;-67
2023/05/19 08:19:57;;;;;;;10.20;7.70;;;;;;;20.51;57.35;97185.19;5006892;28;20321;-66
2023/05/19 08:22:24;;;;;;;16.90;9.97;;;;;;;20.77;57.16;97175.13;5006498;28;20195;-66
2023/05/19 08:24:52;;;;;;;10.77;7.93;;;;;;;20.34;55.51;97177.84;4990912;28;20198;-72
2023/05/19 08:27:19;;;;;;;12.40;8.50;;;;;;;20.69;54.46;97188.09;5007198;28;20195;-67
2023/05/19 08:29:51;;;;;;;9.83;7.40;;;;;;;20.94;53.61;97182.41;5006723;28;20195;-66
2023/05/19 08:32:18;;;;;;;11.87;8.30;;;;;;;21.03;56.14;97202.75;5006841;28;20206;-68
2023/05/19 08:34:45;;;;;;;8.60;7.70;;;;;;;20.90;56.16;97199.44;5006708;28;20218;-66
2023/05/19 08:37:12;;;;;;;11.30;9.33;;;;;;;20.78;56.06;97189.94;5023373;28;20195;-67
2023/05/19 08:39:40;;;;;;;10.47;8.23;;;;;;;20.97;57.29;97198.81;5021826;28;20206;-66
2023/05/19 08:42:08;;;;;;;9.53;7.97;;;;;;;20.99;55.65;97201.31;5008111;28;20649;-67
2023/05/19 08:44:38;;;;;;;10.27;7.63;;;;;;;21.00;57.01;97202.97;4988718;28;20249;-67
2023/05/19 08:47:11;;;;;;;11.23;8.07;;;;;;;20.73;56.62;97195.59;5006421;28;20205;-68
2023/05/19 08:49:44;;;;;;;11.67;7.73;;;;;;;21.08;56.21;97205.00;5007445;28;20222;-67
2023/05/19 08:52:48;;;;;;;16.87;8.87;;;;;;;21.32;56.47;97208.16;5004554;28;20213;-72
2023/05/19 08:55:38;;;;;;;10.67;7.67;;;;;;;21.23;55.29;97193.13;5006216;28;20227;-70
2023/05/19 08:58:06;;;;;;;11.23;7.87;;;;;;;20.94;53.94;97201.69;5007180;28;20194;-71
2023/05/19 09:00:33;;;;;;;10.40;7.10;;;;;;;20.64;57.48;97199.00;5006840;28;20274;-69
2023/05/19 09:03:02;;;;;;;10.33;7.83;;;;;;;21.13;55.88;97193.09;5007350;28;20195;-71
2023/05/19 09:05:45;;;;;;;10.20;7.87;;;;;;;21.34;54.26;97203.59;5020494;28;20682;-69
2023/05/19 09:08:12;;;;;;;10.57;8.13;;;;;;;21.51;55.05;97193.28;5007348;28;20276;-68
2023/05/19 09:10:40;;;;;;;11.97;8.17;;;;;;;21.70;54.87;97208.31;5004707;28;20205;-67
2023/05/19 09:13:10;;;;;;;9.87;8.03;;;;;;;21.69;53.21;97186.38;5007147;28;20196;-73
2023/05/19 09:15:38;;;;;;;13.10;8.10;;;;;;;21.75;53.28;97206.09;5006029;28;20655;-68
2023/05/19 09:18:15;;;;;;;10.03;8.00;;;;;;;21.61;53.70;97201.19;5004265;28;20191;-69
2023/05/19 09:20:45;;;;;;;13.00;8.40;;;;;;;21.67;53.85;97208.56;5006714;28;20276;-67
2023/05/19 09:23:16;;;;;;;12.70;8.47;;;;;;;21.87;53.20;97205.03;4987827;28;20206;-66
2023/05/19 09:25:51;;;;;;;12.73;8.20;;;;;;;21.75;54.96;97211.38;5007276;28;20273;-66
2023/05/19 09:28:31;;;;;;;14.87;8.73;;;;;;;21.74;55.10;97207.88;5005090;28;20190;-69
2023/05/19 09:31:00;;;;;;;11.97;7.53;;;;;;;21.72;53.99;97211.66;5006009;28;20190;-66
2023/05/19 09:33:28;;;;;;;12.33;7.67;;;;;;;21.81;52.79;97200.28;5007209;28;20191;-68
2023/05/19 09:35:55;;;;;;;11.43;8.00;;;;;;;21.68;53.20;97210.22;5003503;28;20225;-67
2023/05/19 09:38:25;;;;;;;14.40;7.90;;;;;;;21.72;53.15;97195.84;5006384;28;20187;-68
2023/05/19 09:40:56;;;;;;;9.93;8.03;;;;;;;21.77;53.45;97198.88;5004961;28;20184;-67
2023/05/19 09:43:32;;;;;;;11.20;8.43;;;;;;;21.89;53.46;97213.66;5004873;28;20194;-68
2023/05/19 09:46:08;;;;;;;12.63;8.60;;;;;;;21.69;52.95;97204.00;5021905;28;20586;-69
2023/05/19 09:48:38;;;;;;;11.03;8.10;;;;;;;21.55;52.74;97196.47;5005567;28;20265;-69
2023/05/19 09:51:09;;;;;;;11.80;7.83;;;;;;;22.02;52.41;97208.13;5007375;28;20191;-68
2023/05/19 09:53:37;;;;;;;10.03;7.57;;;;;;;22.16;51.95;97216.47;5005043;28;20290;-69
2023/05/19 09:56:07;;;;;;;11.50;7.67;;;;;;;22.10;52.45;97217.03;5005707;28;20282;-69
2023/05/19 09:58:36;;;;;;;13.67;7.63;;;;;;;21.90;52.46;97207.44;5006039;28;20200;-66
2023/05/19 10:01:03;;;;;;;9.43;7.30;;;;;;;21.79;52.88;97202.22;5004720;28;20222;-70
2023/05/19 10:03:32;;;;;;;11.30;7.57;;;;;;;21.94;52.90;97202.69;5006595;28;20283;-71
2023/05/19 10:06:03;;;;;;;10.47;7.77;;;;;;;22.24;51.35;97203.44;5019909;28;20199;-69
2023/05/19 10:08:33;;;;;;;8.30;7.40;;;;;;;22.10;52.41;97210.91;5021941;28;20207;-73
2023/05/19 10:11:00;;;;;;;10.93;7.90;;;;;;;22.09;53.89;97196.88;5005101;28;20207;-66
2023/05/19 10:13:29;;;;;;;9.77;7.70;;;;;;;22.15;54.13;97208.72;5006916;28;20212;-67
2023/05/19 10:15:57;;;;;;;13.40;7.00;;;;;;;22.15;52.06;97206.91;5004127;28;20576;-68
2023/05/19 10:18:28;;;;;;;10.00;7.33;;;;;;;22.14;52.16;97197.31;5006185;28;20188;-74
2023/05/19 10:20:56;;;;;;;9.87;7.00;;;;;;;22.00;49.77;97194.25;5005297;28;20233;-74
2023/05/19 10:23:24;;;;;;;11.80;7.50;;;;;;;22.03;51.37;97194.78;5005229;28;20280;-68
2023/05/19 10:25:56;;;;;;;9.50;7.37;;;;;;;21.74;53.16;97194.72;5021834;28;20203;-68
2023/05/19 10:28:26;;;;;;;10.13;7.50;;;;;;;21.69;52.22;97190.81;5019743;28;20325;-69
2023/05/19 10:30:59;;;;;;;9.43;8.13;;;;;;;22.08;51.65;97197.88;4989156;28;20278;-70
2023/05/19 10:33:46;;;;;;;16.37;7.57;;;;;;;22.27;50.32;97191.78;4971968;28;20649;-74
2023/05/19 10:36:37;;;;;;;14.23;8.38;;;;;;;22.35;51.84;97184.00;5007701;28;20428;-70
2023/05/19 10:39:23;;;;;;;13.97;7.60;;;;;;;22.22;51.92;97200.09;5009165;28;20194;-67
2023/05/19 10:42:01;;;;;;;9.77;7.53;;;;;;;22.18;51.55;97188.16;5024644;28;20668;-71
2023/05/19 10:45:06;;;;;;;11.77;7.87;;;;;;;22.02;51.32;97150.94;5009768;28;20231;-71
2023/05/19 10:47:33;;;;;;;10.10;7.23;;;;;;;22.27;50.81;97175.94;4993115;28;20207;-69
2023/05/19 10:50:03;;;;;;;10.33;7.47;;;;;;;22.63;47.22;97178.72;5007777;28;20195;-73
2023/05/19 10:52:31;;;;;;;10.97;6.40;;;;;;;22.62;46.63;97185.00;5010533;28;20231;-73
2023/05/19 10:54:59;;;;;;;10.40;7.47;;;;;;;22.93;46.15;97167.16;4991772;28;20216;-69
2023/05/19 10:57:30;;;;;;;14.53;8.00;;;;;;;23.05;46.22;97165.16;5009538;28;20195;-70
2023/05/19 11:00:05;;;;;;;10.37;6.77;;;;;;;22.52;46.42;97189.41;5008347;28;20559;-68
2023/05/19 11:02:42;;;;;;;10.30;7.53;;;;;;;21.83;47.12;97193.94;5008294;28;20274;-67
2023/05/19 11:05:17;;;;;;;11.57;7.90;;;;;;;21.62;47.87;97184.41;5009897;28;20184;-67
2023/05/19 11:07:55;;;;;;;10.67;6.50;;;;;;;21.39;48.44;97175.06;5008706;28;20205;-68
2023/05/19 11:10:23;;;;;;;14.43;9.97;;;;;;;21.67;47.79;97176.94;5024121;28;20256;-74
2023/05/19 11:12:51;;;;;;;10.27;6.30;;;;;;;21.69;44.75;97169.72;4991870;28;20238;-73
2023/05/19 11:15:25;;;;;;;8.97;6.93;;;;;;;21.97;44.60;97155.78;5006720;28;20288;-72
2023/05/19 11:17:53;;;;;;;10.33;7.37;;;;;;;22.43;42.89;97161.22;5009800;28;20206;-75
2023/05/19 11:20:21;;;;;;;12.50;6.43;;;;;;;22.58;42.94;97167.78;5008146;28;20224;-72
2023/05/19 11:23:08;;;;;;;9.73;7.03;;;;;;;22.62;43.65;97161.25;5008466;28;20228;-75
2023/05/19 11:25:42;;;;;;;11.67;7.07;;;;;;;23.06;43.85;97159.72;5008138;28;20319;-68
2023/05/19 11:28:16;;;;;;;8.93;6.83;;;;;;;22.86;42.58;97149.34;5008452;28;20216;-71
2023/05/19 11:30:45;;;;;;;11.30;7.30;;;;;;;22.87;42.31;97137.84;5009966;28;20190;-72
2023/05/19 11:33:12;;;;;;;8.87;6.43;;;;;;;22.74;41.91;97148.69;5008003;28;20283;-74
2023/05/19 11:35:41;;;;;;;8.63;6.23;;;;;;;23.00;42.21;97152.38;5009651;28;20224;-68
2023/05/19 11:38:09;;;;;;;9.23;6.57;;;;;;;23.05;43.45;97141.38;5008498;28;20198;-70
2023/05/19 11:40:37;;;;;;;11.73;7.00;;;;;;;23.18;44.58;97137.47;5008017;28;20278;-68
2023/05/19 11:43:05;;;;;;;11.40;7.40;;;;;;;22.99;45.31;97126.94;5009187;28;20291;-67
2023/05/19 11:45:33;;;;;;;8.30;6.77;;;;;;;23.01;44.52;97119.72;5006666;28;20281;-66
2023/05/19 11:48:04;;;;;;;8.63;7.07;;;;;;;23.14;44.50;97127.31;5009365;28;20188;-69
2023/05/19 11:50:32;;;;;;;8.03;6.53;;;;;;;22.81;45.03;97122.56;5007734;28;20194;-68
2023/05/19 11:53:00;;;;;;;9.83;6.67;;;;;;;22.62;45.41;97132.19;5009750;28;20193;-69
2023/05/19 11:55:28;;;;;;;8.90;6.80;;;;;;;22.47;46.15;97130.94;5006357;28;20243;-70
2023/05/19 11:58:03;;;;;;;9.97;7.00;;;;;;;22.65;44.48;97125.78;5009096;28;20201;-68
2023/05/19 12:00:37;;;;;;;11.87;6.70;;;;;;;22.95;43.42;97130.84;5009158;28;20247;-72
2023/05/19 12:03:06;;;;;;;10.50;6.67;;;;;;;23.21;43.21;97131.03;5022796;28;20236;-68
2023/05/19 12:05:43;;;;;;;8.73;6.70;;;;;;;23.39;43.31;97129.28;5007715;28;20223;-68
2023/05/19 12:08:12;;;;;;;10.73;6.60;;;;;;;23.70;42.44;97117.44;5007217;28;20233;-67
2023/05/19 12:10:39;;;;;;;9.47;6.70;;;;;;;23.90;40.90;97116.34;5008986;28;20194;-69
2023/05/19 12:13:10;;;;;;;7.47;6.43;;;;;;;23.75;41.48;97115.19;5008059;28;20202;-68
2023/05/19 12:15:37;;;;;;;14.33;7.70;;;;;;;23.82;44.64;97115.44;5006478;28;20224;-72
2023/05/19 12:18:06;;;;;;;9.93;7.60;;;;;;;23.90;45.58;97111.06;5007649;28;20190;-69
2023/05/19 12:20:36;;;;;;;12.37;7.30;;;;;;;23.78;44.69;97112.22;5007189;28;20230;-69
2023/05/19 12:23:04;;;;;;;11.63;7.93;;;;;;;23.78;44.23;97111.41;5008834;28;20274;-71
2023/05/19 12:25:32;;;;;;;9.33;7.40;;;;;;;23.71;44.83;97103.25;5005596;28;20200;-71
2023/05/19 12:28:06;;;;;;;9.43;7.50;;;;;;;23.90;44.29;97120.78;4975594;28;20325;-71
2023/05/19 12:30:33;;;;;;;9.60;6.73;;;;;;;23.53;45.32;97123.53;5008236;28;20200;-69
2023/05/19 12:33:02;;;;;;;10.43;6.70;;;;;;;23.22;43.81;97114.22;4990075;28;20197;-69
2023/05/19 12:35:32;;;;;;;7.13;6.30;;;;;;;23.36;41.06;97101.38;5008650;28;20228;-68
2023/05/19 12:38:05;;;;;;;9.57;6.30;;;;;;;23.97;40.44;97112.09;5007007;28;20257;-68
2023/05/19 12:40:33;;;;;;;7.50;6.10;;;;;;;24.38;39.17;97123.91;4974641;28;20261;-72
2023/05/19 12:43:01;;;;;;;10.37;6.43;;;;;;;24.53;37.44;97116.25;5021771;28;20202;-73
2023/05/19 12:45:35;;;;;;;9.63;6.80;;;;;;;24.15;39.72;97123.53;5007007;28;20203;-67
2023/05/19 12:48:14;;;;;;;8.23;6.40;;;;;;;23.56;39.16;97125.88;4990551;28;20197;-67
2023/05/19 12:50:44;;;;;;;7.70;6.00;;;;;;;23.33;40.44;97122.78;5006624;28;20294;-72